sensor_id;sensor_type;location;lat;lon;timestamp;P1;durP1;ratioP1;P2;durP2;ratioP2
71116;SDS011;58775;46.992;9.518;2024-01-30T00:20:45;2.50;;;0.60;;
71116;SDS011;58775;46.992;9.518;2024-01-30T00:23:05;4.20;;;0.90;;
71116;SDS011;58775;46.992;9.518;2024-01-30T00:28:43;3.15;;;0.80;;
71116;SDS011;58775;46.992;9.518;2024-01-30T00:30:54;2.60;;;0.73;;
71116;SDS011;58775;46.992;9.518;2024-01-30T00:33:11;3.33;;;0.83;;
71116;SDS011;58775;46.992;9.518;2024-01-30T00:35:21;5.43;;;0.93;;
71116;SDS011;58775;46.992;9.518;2024-01-30T00:37:23;2.80;;;0.70;;
71116;SDS011;58775;46.992;9.518;2024-01-30T00:42:39;3.60;;;0.70;;
71116;SDS011;58775;46.992;9.518;2024-01-30T01:19:22;2.92;;;0.60;;
71116;SDS011;58775;46.992;9.518;2024-01-30T01:21:45;2.93;;;0.50;;
71116;SDS011;58775;46.992;9.518;2024-01-30T01:29:56;1.40;;;0.30;;
71116;SDS011;58775;46.992;9.518;2024-01-30T06:59:29;2.73;;;0.60;;
71116;SDS011;58775;46.992;9.518;2024-01-30T10:14:01;5.22;;;1.27;;
71116;SDS011;58775;46.992;9.518;2024-01-30T10:16:02;4.60;;;1.33;;
71116;SDS011;58775;46.992;9.518;2024-01-30T10:18:03;7.80;;;3.03;;
71116;SDS011;58775;46.992;9.518;2024-01-30T10:20:07;5.35;;;1.70;;
71116;SDS011;58775;46.992;9.518;2024-01-30T10:22:09;2.35;;;0.95;;
71116;SDS011;58775;46.992;9.518;2024-01-30T16:30:30;6.00;;;1.83;;
71116;SDS011;58775;46.992;9.518;2024-01-30T16:32:37;5.50;;;1.70;;
71116;SDS011;58775;46.992;9.518;2024-01-30T16:38:26;6.43;;;1.88;;
71116;SDS011;58775;46.992;9.518;2024-01-30T17:05:40;7.75;;;2.42;;
71116;SDS011;58775;46.992;9.518;2024-01-30T17:47:59;8.65;;;3.00;;
71116;SDS011;58775;46.992;9.518;2024-01-30T18:13:29;7.63;;;2.00;;
71116;SDS011;58775;46.992;9.518;2024-01-30T18:15:29;8.80;;;2.80;;
71116;SDS011;58775;46.992;9.518;2024-01-30T18:17:35;9.02;;;2.28;;
71116;SDS011;58775;46.992;9.518;2024-01-30T18:19:40;5.93;;;2.43;;
71116;SDS011;58775;46.992;9.518;2024-01-30T18:22:01;9.00;;;2.70;;
71116;SDS011;58775;46.992;9.518;2024-01-30T18:24:02;6.65;;;2.10;;
71116;SDS011;58775;46.992;9.518;2024-01-30T18:26:15;7.82;;;2.63;;
71116;SDS011;58775;46.992;9.518;2024-01-30T18:28:19;6.10;;;2.20;;
71116;SDS011;58775;46.992;9.518;2024-01-30T18:30:20;5.90;;;2.10;;
71116;SDS011;58775;46.992;9.518;2024-01-30T18:32:22;5.90;;;2.42;;
71116;SDS011;58775;46.992;9.518;2024-01-30T18:34:23;6.20;;;2.28;;
71116;SDS011;58775;46.992;9.518;2024-01-30T18:36:24;7.00;;;2.07;;
71116;SDS011;58775;46.992;9.518;2024-01-30T18:38:25;6.50;;;2.20;;
71116;SDS011;58775;46.992;9.518;2024-01-30T18:40:26;6.82;;;2.33;;
71116;SDS011;58775;46.992;9.518;2024-01-30T18:42:27;7.27;;;2.20;;
71116;SDS011;58775;46.992;9.518;2024-01-30T18:44:27;8.38;;;2.50;;
71116;SDS011;58775;46.992;9.518;2024-01-30T18:46:28;7.38;;;2.40;;
71116;SDS011;58775;46.992;9.518;2024-01-30T18:48:29;7.43;;;2.40;;
71116;SDS011;58775;46.992;9.518;2024-01-30T18:50:30;7.88;;;2.53;;
71116;SDS011;58775;46.992;9.518;2024-01-30T18:52:31;7.43;;;2.97;;
71116;SDS011;58775;46.992;9.518;2024-01-30T18:54:32;7.30;;;2.87;;
71116;SDS011;58775;46.992;9.518;2024-01-30T18:56:33;8.52;;;2.55;;
71116;SDS011;58775;46.992;9.518;2024-01-30T18:58:34;9.77;;;2.75;;
71116;SDS011;58775;46.992;9.518;2024-01-30T19:00:35;9.20;;;3.10;;
71116;SDS011;58775;46.992;9.518;2024-01-30T19:02:41;8.10;;;2.72;;
71116;SDS011;58775;46.992;9.518;2024-01-30T19:04:42;9.90;;;2.70;;
71116;SDS011;58775;46.992;9.518;2024-01-30T19:06:43;7.57;;;2.70;;
71116;SDS011;58775;46.992;9.518;2024-01-30T19:08:44;6.28;;;2.45;;
71116;SDS011;58775;46.992;9.518;2024-01-30T19:10:45;7.15;;;2.67;;
71116;SDS011;58775;46.992;9.518;2024-01-30T19:12:46;6.75;;;2.65;;
71116;SDS011;58775;46.992;9.518;2024-01-30T19:14:47;8.73;;;2.87;;
71116;SDS011;58775;46.992;9.518;2024-01-30T19:16:48;8.23;;;2.70;;
71116;SDS011;58775;46.992;9.518;2024-01-30T19:18:49;9.52;;;2.60;;
71116;SDS011;58775;46.992;9.518;2024-01-30T19:20:50;7.82;;;2.28;;
71116;SDS011;58775;46.992;9.518;2024-01-30T19:22:53;6.60;;;2.17;;
71116;SDS011;58775;46.992;9.518;2024-01-30T19:24:54;5.88;;;2.10;;
71116;SDS011;58775;46.992;9.518;2024-01-30T19:26:55;5.05;;;2.00;;
71116;SDS011;58775;46.992;9.518;2024-01-30T19:28:56;9.85;;;3.25;;
71116;SDS011;58775;46.992;9.518;2024-01-30T19:30:57;9.03;;;2.50;;
71116;SDS011;58775;46.992;9.518;2024-01-30T19:33:01;5.90;;;1.88;;
71116;SDS011;58775;46.992;9.518;2024-01-30T19:35:02;6.03;;;2.03;;
71116;SDS011;58775;46.992;9.518;2024-01-30T19:37:03;7.00;;;2.22;;
71116;SDS011;58775;46.992;9.518;2024-01-30T19:39:05;6.60;;;2.30;;
71116;SDS011;58775;46.992;9.518;2024-01-30T19:41:12;6.68;;;2.28;;
71116;SDS011;58775;46.992;9.518;2024-01-30T19:43:13;7.38;;;2.55;;
71116;SDS011;58775;46.992;9.518;2024-01-30T19:45:14;6.13;;;2.60;;
71116;SDS011;58775;46.992;9.518;2024-01-30T19:47:15;12.70;;;3.67;;
71116;SDS011;58775;46.992;9.518;2024-01-30T19:49:18;6.85;;;2.33;;
71116;SDS011;58775;46.992;9.518;2024-01-30T19:51:19;8.02;;;2.75;;
71116;SDS011;58775;46.992;9.518;2024-01-30T19:53:20;6.30;;;2.43;;
71116;SDS011;58775;46.992;9.518;2024-01-30T19:55:21;9.23;;;2.40;;
71116;SDS011;58775;46.992;9.518;2024-01-30T19:57:21;6.50;;;2.00;;
71116;SDS011;58775;46.992;9.518;2024-01-30T19:59:22;6.27;;;2.17;;
71116;SDS011;58775;46.992;9.518;2024-01-30T20:01:23;7.30;;;2.63;;
71116;SDS011;58775;46.992;9.518;2024-01-30T20:03:24;7.00;;;2.70;;
71116;SDS011;58775;46.992;9.518;2024-01-30T20:05:25;10.70;;;2.70;;
71116;SDS011;58775;46.992;9.518;2024-01-30T20:07:26;6.50;;;2.05;;
71116;SDS011;58775;46.992;9.518;2024-01-30T20:09:27;6.85;;;2.42;;
71116;SDS011;58775;46.992;9.518;2024-01-30T20:11:28;13.18;;;2.85;;
71116;SDS011;58775;46.992;9.518;2024-01-30T20:13:28;7.28;;;2.92;;
71116;SDS011;58775;46.992;9.518;2024-01-30T20:15:29;9.80;;;2.90;;
71116;SDS011;58775;46.992;9.518;2024-01-30T20:17:31;6.05;;;1.75;;
71116;SDS011;58775;46.992;9.518;2024-01-30T20:19:34;8.95;;;2.72;;
71116;SDS011;58775;46.992;9.518;2024-01-30T20:21:35;9.27;;;2.60;;
71116;SDS011;58775;46.992;9.518;2024-01-30T20:23:37;7.65;;;2.67;;
71116;SDS011;58775;46.992;9.518;2024-01-30T20:25:38;7.30;;;2.97;;
71116;SDS011;58775;46.992;9.518;2024-01-30T20:27:39;8.55;;;3.08;;
71116;SDS011;58775;46.992;9.518;2024-01-30T20:29:40;5.88;;;2.10;;
71116;SDS011;58775;46.992;9.518;2024-01-30T20:31:41;7.80;;;2.42;;
71116;SDS011;58775;46.992;9.518;2024-01-30T20:33:41;7.05;;;2.53;;
71116;SDS011;58775;46.992;9.518;2024-01-30T20:35:42;8.73;;;2.67;;
71116;SDS011;58775;46.992;9.518;2024-01-30T20:37:44;6.80;;;2.42;;
71116;SDS011;58775;46.992;9.518;2024-01-30T20:39:46;7.93;;;2.75;;
71116;SDS011;58775;46.992;9.518;2024-01-30T20:41:47;8.88;;;3.10;;
71116;SDS011;58775;46.992;9.518;2024-01-30T20:43:49;7.28;;;2.53;;
71116;SDS011;58775;46.992;9.518;2024-01-30T20:45:50;6.55;;;2.80;;
71116;SDS011;58775;46.992;9.518;2024-01-30T20:47:51;7.65;;;3.10;;
71116;SDS011;58775;46.992;9.518;2024-01-30T20:49:52;6.93;;;2.70;;
71116;SDS011;58775;46.992;9.518;2024-01-30T20:51:53;7.10;;;3.20;;
71116;SDS011;58775;46.992;9.518;2024-01-30T20:53:54;6.70;;;2.13;;
71116;SDS011;58775;46.992;9.518;2024-01-30T20:55:56;9.90;;;2.43;;
71116;SDS011;58775;46.992;9.518;2024-01-30T20:57:57;5.68;;;2.03;;
71116;SDS011;58775;46.992;9.518;2024-01-30T20:59:57;7.50;;;2.70;;
71116;SDS011;58775;46.992;9.518;2024-01-30T21:01:58;7.03;;;3.03;;
71116;SDS011;58775;46.992;9.518;2024-01-30T21:03:59;9.13;;;3.45;;
71116;SDS011;58775;46.992;9.518;2024-01-30T21:06:00;8.43;;;3.00;;
71116;SDS011;58775;46.992;9.518;2024-01-30T21:08:01;9.70;;;2.85;;
71116;SDS011;58775;46.992;9.518;2024-01-30T21:10:01;6.50;;;2.73;;
71116;SDS011;58775;46.992;9.518;2024-01-30T21:12:03;8.18;;;2.65;;
71116;SDS011;58775;46.992;9.518;2024-01-30T21:14:04;7.95;;;2.65;;
71116;SDS011;58775;46.992;9.518;2024-01-30T21:16:05;7.50;;;2.50;;
71116;SDS011;58775;46.992;9.518;2024-01-30T21:18:06;7.27;;;2.60;;
71116;SDS011;58775;46.992;9.518;2024-01-30T21:20:09;6.30;;;2.15;;
71116;SDS011;58775;46.992;9.518;2024-01-30T21:22:10;5.30;;;1.90;;
71116;SDS011;58775;46.992;9.518;2024-01-30T21:24:11;7.78;;;2.58;;
71116;SDS011;58775;46.992;9.518;2024-01-30T21:26:11;6.03;;;2.00;;
71116;SDS011;58775;46.992;9.518;2024-01-30T21:28:14;5.65;;;2.40;;
71116;SDS011;58775;46.992;9.518;2024-01-30T21:30:17;7.05;;;2.42;;
71116;SDS011;58775;46.992;9.518;2024-01-30T21:32:18;8.37;;;2.40;;
71116;SDS011;58775;46.992;9.518;2024-01-30T21:34:19;6.35;;;2.35;;
71116;SDS011;58775;46.992;9.518;2024-01-30T21:36:20;8.15;;;2.60;;
71116;SDS011;58775;46.992;9.518;2024-01-30T21:38:21;7.00;;;2.30;;
71116;SDS011;58775;46.992;9.518;2024-01-30T21:40:22;6.50;;;1.80;;
71116;SDS011;58775;46.992;9.518;2024-01-30T21:42:23;5.93;;;1.98;;
71116;SDS011;58775;46.992;9.518;2024-01-30T21:44:23;6.22;;;1.70;;
71116;SDS011;58775;46.992;9.518;2024-01-30T21:46:25;6.27;;;1.67;;
71116;SDS011;58775;46.992;9.518;2024-01-30T21:48:26;5.90;;;1.92;;
71116;SDS011;58775;46.992;9.518;2024-01-30T21:50:27;5.20;;;1.60;;
71116;SDS011;58775;46.992;9.518;2024-01-30T21:52:28;7.17;;;2.13;;
71116;SDS011;58775;46.992;9.518;2024-01-30T21:54:29;7.95;;;2.33;;
71116;SDS011;58775;46.992;9.518;2024-01-30T21:56:30;8.97;;;2.67;;
71116;SDS011;58775;46.992;9.518;2024-01-30T21:58:31;9.52;;;2.58;;
71116;SDS011;58775;46.992;9.518;2024-01-30T22:00:32;12.23;;;2.85;;
71116;SDS011;58775;46.992;9.518;2024-01-30T22:02:32;7.83;;;2.13;;
71116;SDS011;58775;46.992;9.518;2024-01-30T22:04:33;6.63;;;2.17;;
71116;SDS011;58775;46.992;9.518;2024-01-30T22:06:34;8.15;;;2.30;;
71116;SDS011;58775;46.992;9.518;2024-01-30T22:08:35;7.70;;;2.50;;
71116;SDS011;58775;46.992;9.518;2024-01-30T22:10:36;7.97;;;2.70;;
71116;SDS011;58775;46.992;9.518;2024-01-30T22:12:37;8.23;;;2.70;;
71116;SDS011;58775;46.992;9.518;2024-01-30T22:14:38;6.82;;;2.40;;
71116;SDS011;58775;46.992;9.518;2024-01-30T22:16:39;7.10;;;2.30;;
71116;SDS011;58775;46.992;9.518;2024-01-30T22:18:40;6.87;;;2.10;;
71116;SDS011;58775;46.992;9.518;2024-01-30T22:20:41;7.05;;;2.45;;
71116;SDS011;58775;46.992;9.518;2024-01-30T22:22:42;5.82;;;1.88;;
71116;SDS011;58775;46.992;9.518;2024-01-30T22:24:43;5.93;;;2.00;;
71116;SDS011;58775;46.992;9.518;2024-01-30T22:26:44;5.35;;;1.92;;
71116;SDS011;58775;46.992;9.518;2024-01-30T22:28:45;6.03;;;2.05;;
71116;SDS011;58775;46.992;9.518;2024-01-30T22:30:45;7.27;;;2.00;;
71116;SDS011;58775;46.992;9.518;2024-01-30T22:32:46;5.30;;;1.65;;
71116;SDS011;58775;46.992;9.518;2024-01-30T22:34:47;6.37;;;1.80;;
71116;SDS011;58775;46.992;9.518;2024-01-30T22:36:48;6.72;;;1.73;;
71116;SDS011;58775;46.992;9.518;2024-01-30T22:38:49;5.70;;;1.67;;
71116;SDS011;58775;46.992;9.518;2024-01-30T22:40:49;6.97;;;1.70;;
71116;SDS011;58775;46.992;9.518;2024-01-30T22:42:50;6.30;;;2.13;;
71116;SDS011;58775;46.992;9.518;2024-01-30T22:44:51;5.82;;;1.50;;
71116;SDS011;58775;46.992;9.518;2024-01-30T22:46:52;4.00;;;1.20;;
71116;SDS011;58775;46.992;9.518;2024-01-30T22:48:53;4.03;;;1.30;;
71116;SDS011;58775;46.992;9.518;2024-01-30T22:50:54;5.63;;;1.60;;
71116;SDS011;58775;46.992;9.518;2024-01-30T22:52:54;4.03;;;0.93;;
71116;SDS011;58775;46.992;9.518;2024-01-30T22:54:55;8.63;;;1.83;;
71116;SDS011;58775;46.992;9.518;2024-01-30T22:56:57;3.83;;;1.20;;
71116;SDS011;58775;46.992;9.518;2024-01-30T22:58:58;4.15;;;1.30;;
71116;SDS011;58775;46.992;9.518;2024-01-30T23:00:59;7.50;;;1.20;;
71116;SDS011;58775;46.992;9.518;2024-01-30T23:02:59;3.95;;;1.20;;
71116;SDS011;58775;46.992;9.518;2024-01-30T23:05:00;6.13;;;1.47;;
71116;SDS011;58775;46.992;9.518;2024-01-30T23:07:01;3.40;;;1.00;;
71116;SDS011;58775;46.992;9.518;2024-01-30T23:09:02;6.50;;;1.90;;
71116;SDS011;58775;46.992;9.518;2024-01-30T23:11:03;3.80;;;1.20;;
71116;SDS011;58775;46.992;9.518;2024-01-30T23:13:04;5.63;;;1.50;;
71116;SDS011;58775;46.992;9.518;2024-01-30T23:15:05;3.30;;;0.80;;
71116;SDS011;58775;46.992;9.518;2024-01-30T23:17:09;5.53;;;2.10;;
71116;SDS011;58775;46.992;9.518;2024-01-30T23:19:10;5.10;;;1.75;;
71116;SDS011;58775;46.992;9.518;2024-01-30T23:21:11;8.53;;;1.90;;
71116;SDS011;58775;46.992;9.518;2024-01-30T23:23:12;6.82;;;1.40;;
71116;SDS011;58775;46.992;9.518;2024-01-30T23:25:13;4.67;;;1.50;;
71116;SDS011;58775;46.992;9.518;2024-01-30T23:27:13;4.95;;;1.48;;
71116;SDS011;58775;46.992;9.518;2024-01-30T23:29:14;4.97;;;1.42;;
71116;SDS011;58775;46.992;9.518;2024-01-30T23:31:15;3.90;;;1.17;;
71116;SDS011;58775;46.992;9.518;2024-01-30T23:33:16;5.05;;;1.30;;
71116;SDS011;58775;46.992;9.518;2024-01-30T23:35:16;5.37;;;1.53;;
71116;SDS011;58775;46.992;9.518;2024-01-30T23:37:17;5.30;;;1.17;;
71116;SDS011;58775;46.992;9.518;2024-01-30T23:39:19;4.90;;;1.05;;
71116;SDS011;58775;46.992;9.518;2024-01-30T23:41:20;4.67;;;1.27;;
71116;SDS011;58775;46.992;9.518;2024-01-30T23:43:21;4.35;;;1.52;;
71116;SDS011;58775;46.992;9.518;2024-01-30T23:45:22;3.63;;;0.82;;
71116;SDS011;58775;46.992;9.518;2024-01-30T23:47:23;2.73;;;0.90;;
71116;SDS011;58775;46.992;9.518;2024-01-30T23:49:23;2.95;;;0.80;;
71116;SDS011;58775;46.992;9.518;2024-01-30T23:51:24;2.97;;;0.93;;
71116;SDS011;58775;46.992;9.518;2024-01-30T23:53:25;5.05;;;0.85;;
71116;SDS011;58775;46.992;9.518;2024-01-30T23:55:26;2.85;;;0.93;;
71116;SDS011;58775;46.992;9.518;2024-01-30T23:57:27;4.85;;;0.93;;
71116;SDS011;58775;46.992;9.518;2024-01-30T23:59:27;4.43;;;0.90;;
